sensor_id;sensor_type;location;lat;lon;timestamp;P1;durP1;ratioP1;P2;durP2;ratioP2
4806;SDS011;2417;52.482;13.432;2023-07-22T00:00:50;25.23;;;7.47;;
4806;SDS011;2417;52.482;13.432;2023-07-22T00:03:18;26.10;;;7.77;;
4806;SDS011;2417;52.482;13.432;2023-07-22T00:05:46;26.50;;;8.20;;
4806;SDS011;2417;52.482;13.432;2023-07-22T00:08:14;26.03;;;7.83;;
4806;SDS011;2417;52.482;13.432;2023-07-22T00:10:42;28.40;;;8.33;;
4806;SDS011;2417;52.482;13.432;2023-07-22T00:13:10;26.47;;;7.80;;
4806;SDS011;2417;52.482;13.432;2023-07-22T00:15:39;28.50;;;8.87;;
4806;SDS011;2417;52.482;13.432;2023-07-22T00:18:07;25.40;;;6.70;;
4806;SDS011;2417;52.482;13.432;2023-07-22T00:20:37;25.80;;;7.70;;
4806;SDS011;2417;52.482;13.432;2023-07-22T00:23:05;26.03;;;7.87;;
4806;SDS011;2417;52.482;13.432;2023-07-22T00:25:32;23.43;;;7.20;;
4806;SDS011;2417;52.482;13.432;2023-07-22T00:28:00;26.67;;;8.37;;
4806;SDS011;2417;52.482;13.432;2023-07-22T00:30:29;26.93;;;7.73;;
4806;SDS011;2417;52.482;13.432;2023-07-22T00:32:58;26.97;;;8.27;;
4806;SDS011;2417;52.482;13.432;2023-07-22T00:35:27;30.87;;;8.10;;
4806;SDS011;2417;52.482;13.432;2023-07-22T00:37:55;24.57;;;7.00;;
4806;SDS011;2417;52.482;13.432;2023-07-22T00:40:23;26.13;;;7.70;;
4806;SDS011;2417;52.482;13.432;2023-07-22T00:42:51;26.60;;;7.83;;
4806;SDS011;2417;52.482;13.432;2023-07-22T00:45:19;28.20;;;7.97;;
4806;SDS011;2417;52.482;13.432;2023-07-22T00:47:47;25.30;;;8.03;;
4806;SDS011;2417;52.482;13.432;2023-07-22T00:50:16;29.23;;;9.10;;
4806;SDS011;2417;52.482;13.432;2023-07-22T00:52:44;27.70;;;7.47;;
4806;SDS011;2417;52.482;13.432;2023-07-22T00:55:12;31.70;;;8.60;;
4806;SDS011;2417;52.482;13.432;2023-07-22T00:57:40;24.60;;;7.07;;
4806;SDS011;2417;52.482;13.432;2023-07-22T01:00:09;27.43;;;7.87;;
4806;SDS011;2417;52.482;13.432;2023-07-22T01:02:39;27.17;;;7.70;;
4806;SDS011;2417;52.482;13.432;2023-07-22T01:05:07;28.40;;;7.70;;
4806;SDS011;2417;52.482;13.432;2023-07-22T01:07:39;24.37;;;7.13;;
4806;SDS011;2417;52.482;13.432;2023-07-22T01:10:08;22.97;;;6.60;;
4806;SDS011;2417;52.482;13.432;2023-07-22T01:12:38;26.30;;;7.53;;
4806;SDS011;2417;52.482;13.432;2023-07-22T01:15:06;31.70;;;7.50;;
4806;SDS011;2417;52.482;13.432;2023-07-22T01:17:36;26.20;;;7.63;;
4806;SDS011;2417;52.482;13.432;2023-07-22T01:20:05;26.67;;;7.10;;
4806;SDS011;2417;52.482;13.432;2023-07-22T01:22:33;25.43;;;7.90;;
4806;SDS011;2417;52.482;13.432;2023-07-22T01:25:04;26.40;;;7.27;;
4806;SDS011;2417;52.482;13.432;2023-07-22T01:27:33;29.07;;;9.43;;
4806;SDS011;2417;52.482;13.432;2023-07-22T01:30:01;27.53;;;8.47;;
4806;SDS011;2417;52.482;13.432;2023-07-22T01:32:32;29.67;;;9.33;;
4806;SDS011;2417;52.482;13.432;2023-07-22T01:35:00;52.83;;;8.27;;
4806;SDS011;2417;52.482;13.432;2023-07-22T01:37:29;31.70;;;7.93;;
4806;SDS011;2417;52.482;13.432;2023-07-22T01:39:58;31.80;;;7.90;;
4806;SDS011;2417;52.482;13.432;2023-07-22T01:42:28;31.03;;;10.33;;
4806;SDS011;2417;52.482;13.432;2023-07-22T01:44:56;39.30;;;12.27;;
4806;SDS011;2417;52.482;13.432;2023-07-22T01:47:24;27.17;;;8.73;;
4806;SDS011;2417;52.482;13.432;2023-07-22T01:49:53;26.30;;;8.27;;
4806;SDS011;2417;52.482;13.432;2023-07-22T01:52:21;37.23;;;14.10;;
4806;SDS011;2417;52.482;13.432;2023-07-22T01:54:49;25.57;;;8.57;;
4806;SDS011;2417;52.482;13.432;2023-07-22T01:57:16;28.13;;;10.13;;
4806;SDS011;2417;52.482;13.432;2023-07-22T02:00:08;36.70;;;13.33;;
4806;SDS011;2417;52.482;13.432;2023-07-22T02:02:41;30.10;;;9.70;;
4806;SDS011;2417;52.482;13.432;2023-07-22T02:05:09;27.80;;;9.53;;
4806;SDS011;2417;52.482;13.432;2023-07-22T02:07:37;28.40;;;9.90;;
4806;SDS011;2417;52.482;13.432;2023-07-22T02:10:06;32.60;;;10.03;;
4806;SDS011;2417;52.482;13.432;2023-07-22T02:12:34;29.43;;;9.57;;
4806;SDS011;2417;52.482;13.432;2023-07-22T02:15:03;28.73;;;9.40;;
4806;SDS011;2417;52.482;13.432;2023-07-22T02:17:33;28.40;;;9.33;;
4806;SDS011;2417;52.482;13.432;2023-07-22T02:20:01;29.53;;;10.07;;
4806;SDS011;2417;52.482;13.432;2023-07-22T02:22:37;26.80;;;8.93;;
4806;SDS011;2417;52.482;13.432;2023-07-22T02:25:07;26.37;;;8.47;;
4806;SDS011;2417;52.482;13.432;2023-07-22T02:27:38;27.43;;;8.20;;
4806;SDS011;2417;52.482;13.432;2023-07-22T02:30:07;25.97;;;8.10;;
4806;SDS011;2417;52.482;13.432;2023-07-22T02:32:39;24.63;;;7.57;;
4806;SDS011;2417;52.482;13.432;2023-07-22T02:35:07;28.03;;;7.90;;
4806;SDS011;2417;52.482;13.432;2023-07-22T02:37:36;25.50;;;8.00;;
4806;SDS011;2417;52.482;13.432;2023-07-22T02:40:05;25.90;;;8.53;;
4806;SDS011;2417;52.482;13.432;2023-07-22T02:42:35;25.90;;;8.30;;
4806;SDS011;2417;52.482;13.432;2023-07-22T02:45:03;27.33;;;7.93;;
4806;SDS011;2417;52.482;13.432;2023-07-22T02:47:36;27.53;;;8.33;;
4806;SDS011;2417;52.482;13.432;2023-07-22T02:50:06;24.40;;;7.73;;
4806;SDS011;2417;52.482;13.432;2023-07-22T02:52:34;25.57;;;7.73;;
4806;SDS011;2417;52.482;13.432;2023-07-22T02:55:06;23.73;;;6.97;;
4806;SDS011;2417;52.482;13.432;2023-07-22T02:57:35;24.20;;;7.00;;
4806;SDS011;2417;52.482;13.432;2023-07-22T03:00:03;26.27;;;7.50;;
4806;SDS011;2417;52.482;13.432;2023-07-22T03:02:34;26.10;;;7.20;;
4806;SDS011;2417;52.482;13.432;2023-07-22T03:05:03;24.27;;;7.20;;
4806;SDS011;2417;52.482;13.432;2023-07-22T03:07:36;25.47;;;7.57;;
4806;SDS011;2417;52.482;13.432;2023-07-22T03:10:05;25.83;;;7.33;;
4806;SDS011;2417;52.482;13.432;2023-07-22T03:12:33;29.30;;;7.77;;
4806;SDS011;2417;52.482;13.432;2023-07-22T03:15:01;29.10;;;7.93;;
4806;SDS011;2417;52.482;13.432;2023-07-22T03:17:29;24.67;;;7.40;;
4806;SDS011;2417;52.482;13.432;2023-07-22T03:19:58;27.17;;;8.30;;
4806;SDS011;2417;52.482;13.432;2023-07-22T03:22:26;28.60;;;8.83;;
4806;SDS011;2417;52.482;13.432;2023-07-22T03:24:55;27.00;;;8.20;;
4806;SDS011;2417;52.482;13.432;2023-07-22T03:27:23;28.40;;;8.20;;
4806;SDS011;2417;52.482;13.432;2023-07-22T03:29:51;29.23;;;9.50;;
4806;SDS011;2417;52.482;13.432;2023-07-22T03:32:19;29.20;;;8.20;;
4806;SDS011;2417;52.482;13.432;2023-07-22T03:34:47;27.27;;;8.70;;
4806;SDS011;2417;52.482;13.432;2023-07-22T03:37:15;28.43;;;8.20;;
4806;SDS011;2417;52.482;13.432;2023-07-22T03:39:43;27.73;;;8.73;;
4806;SDS011;2417;52.482;13.432;2023-07-22T03:42:12;27.83;;;9.03;;
4806;SDS011;2417;52.482;13.432;2023-07-22T03:44:40;29.73;;;9.20;;
4806;SDS011;2417;52.482;13.432;2023-07-22T03:47:08;27.20;;;8.67;;
4806;SDS011;2417;52.482;13.432;2023-07-22T03:49:36;28.00;;;9.10;;
4806;SDS011;2417;52.482;13.432;2023-07-22T03:52:04;25.83;;;8.30;;
4806;SDS011;2417;52.482;13.432;2023-07-22T03:54:32;28.63;;;8.80;;
4806;SDS011;2417;52.482;13.432;2023-07-22T03:57:00;24.20;;;7.90;;
4806;SDS011;2417;52.482;13.432;2023-07-22T03:59:30;25.57;;;8.07;;
4806;SDS011;2417;52.482;13.432;2023-07-22T04:01:58;33.47;;;7.87;;
4806;SDS011;2417;52.482;13.432;2023-07-22T04:04:26;26.30;;;7.40;;
4806;SDS011;2417;52.482;13.432;2023-07-22T04:06:54;28.03;;;7.80;;
4806;SDS011;2417;52.482;13.432;2023-07-22T04:09:22;24.17;;;6.80;;
4806;SDS011;2417;52.482;13.432;2023-07-22T04:11:50;28.60;;;7.50;;
4806;SDS011;2417;52.482;13.432;2023-07-22T04:14:20;26.50;;;7.13;;
4806;SDS011;2417;52.482;13.432;2023-07-22T04:16:49;25.77;;;6.87;;
4806;SDS011;2417;52.482;13.432;2023-07-22T04:19:17;27.13;;;6.40;;
4806;SDS011;2417;52.482;13.432;2023-07-22T04:21:47;26.17;;;6.33;;
4806;SDS011;2417;52.482;13.432;2023-07-22T04:24:14;25.50;;;6.47;;
4806;SDS011;2417;52.482;13.432;2023-07-22T04:26:43;22.67;;;5.40;;
4806;SDS011;2417;52.482;13.432;2023-07-22T04:29:11;22.77;;;6.33;;
4806;SDS011;2417;52.482;13.432;2023-07-22T04:31:39;25.10;;;6.40;;
4806;SDS011;2417;52.482;13.432;2023-07-22T04:34:08;25.30;;;6.20;;
4806;SDS011;2417;52.482;13.432;2023-07-22T04:36:39;24.30;;;5.90;;
4806;SDS011;2417;52.482;13.432;2023-07-22T04:39:07;24.23;;;5.90;;
4806;SDS011;2417;52.482;13.432;2023-07-22T04:41:35;23.00;;;5.97;;
4806;SDS011;2417;52.482;13.432;2023-07-22T04:44:03;24.40;;;5.60;;
4806;SDS011;2417;52.482;13.432;2023-07-22T04:46:31;27.17;;;5.70;;
4806;SDS011;2417;52.482;13.432;2023-07-22T04:48:59;23.23;;;5.43;;
4806;SDS011;2417;52.482;13.432;2023-07-22T04:51:29;23.00;;;5.63;;
4806;SDS011;2417;52.482;13.432;2023-07-22T04:53:58;26.90;;;5.90;;
4806;SDS011;2417;52.482;13.432;2023-07-22T04:56:26;25.50;;;5.97;;
4806;SDS011;2417;52.482;13.432;2023-07-22T04:58:54;23.60;;;6.00;;
4806;SDS011;2417;52.482;13.432;2023-07-22T05:01:22;23.10;;;5.73;;
4806;SDS011;2417;52.482;13.432;2023-07-22T05:03:50;22.57;;;5.53;;
4806;SDS011;2417;52.482;13.432;2023-07-22T05:06:21;22.60;;;5.67;;
4806;SDS011;2417;52.482;13.432;2023-07-22T05:08:52;21.17;;;5.50;;
4806;SDS011;2417;52.482;13.432;2023-07-22T05:11:20;25.37;;;5.67;;
4806;SDS011;2417;52.482;13.432;2023-07-22T05:13:50;22.60;;;5.90;;
4806;SDS011;2417;52.482;13.432;2023-07-22T05:16:18;22.73;;;6.07;;
4806;SDS011;2417;52.482;13.432;2023-07-22T05:18:47;21.30;;;5.93;;
4806;SDS011;2417;52.482;13.432;2023-07-22T05:21:15;23.20;;;7.10;;
4806;SDS011;2417;52.482;13.432;2023-07-22T05:23:43;23.10;;;6.90;;
4806;SDS011;2417;52.482;13.432;2023-07-22T05:26:12;26.87;;;6.97;;
4806;SDS011;2417;52.482;13.432;2023-07-22T05:28:40;29.30;;;6.80;;
4806;SDS011;2417;52.482;13.432;2023-07-22T05:31:09;26.57;;;7.70;;
4806;SDS011;2417;52.482;13.432;2023-07-22T05:33:37;23.53;;;6.90;;
4806;SDS011;2417;52.482;13.432;2023-07-22T05:36:05;23.40;;;6.93;;
4806;SDS011;2417;52.482;13.432;2023-07-22T05:38:33;24.13;;;6.40;;
4806;SDS011;2417;52.482;13.432;2023-07-22T05:41:01;24.87;;;6.40;;
4806;SDS011;2417;52.482;13.432;2023-07-22T05:43:30;22.70;;;7.17;;
4806;SDS011;2417;52.482;13.432;2023-07-22T05:45:58;24.10;;;7.07;;
4806;SDS011;2417;52.482;13.432;2023-07-22T05:48:26;22.27;;;6.77;;
4806;SDS011;2417;52.482;13.432;2023-07-22T05:50:54;26.63;;;7.03;;
4806;SDS011;2417;52.482;13.432;2023-07-22T05:53:22;22.40;;;7.13;;
4806;SDS011;2417;52.482;13.432;2023-07-22T05:55:50;24.40;;;7.63;;
4806;SDS011;2417;52.482;13.432;2023-07-22T05:58:18;32.10;;;8.40;;
4806;SDS011;2417;52.482;13.432;2023-07-22T06:00:47;28.33;;;8.40;;
4806;SDS011;2417;52.482;13.432;2023-07-22T06:03:15;24.43;;;8.33;;
4806;SDS011;2417;52.482;13.432;2023-07-22T06:05:43;26.90;;;8.20;;
4806;SDS011;2417;52.482;13.432;2023-07-22T06:08:11;24.73;;;8.30;;
4806;SDS011;2417;52.482;13.432;2023-07-22T06:10:39;24.00;;;7.47;;
4806;SDS011;2417;52.482;13.432;2023-07-22T06:13:07;23.70;;;7.97;;
4806;SDS011;2417;52.482;13.432;2023-07-22T06:15:35;23.30;;;7.40;;
4806;SDS011;2417;52.482;13.432;2023-07-22T06:18:05;22.10;;;6.73;;
4806;SDS011;2417;52.482;13.432;2023-07-22T06:20:35;22.53;;;6.73;;
4806;SDS011;2417;52.482;13.432;2023-07-22T06:23:03;24.33;;;7.17;;
4806;SDS011;2417;52.482;13.432;2023-07-22T06:25:31;21.60;;;6.50;;
4806;SDS011;2417;52.482;13.432;2023-07-22T06:27:59;22.13;;;6.83;;
4806;SDS011;2417;52.482;13.432;2023-07-22T06:30:26;19.07;;;6.23;;
4806;SDS011;2417;52.482;13.432;2023-07-22T06:32:55;21.97;;;6.30;;
4806;SDS011;2417;52.482;13.432;2023-07-22T06:35:24;18.67;;;6.10;;
4806;SDS011;2417;52.482;13.432;2023-07-22T06:37:52;19.27;;;6.30;;
4806;SDS011;2417;52.482;13.432;2023-07-22T06:40:20;20.27;;;6.67;;
4806;SDS011;2417;52.482;13.432;2023-07-22T06:42:48;19.53;;;5.10;;
4806;SDS011;2417;52.482;13.432;2023-07-22T06:45:16;25.73;;;5.97;;
4806;SDS011;2417;52.482;13.432;2023-07-22T06:47:43;18.77;;;5.33;;
4806;SDS011;2417;52.482;13.432;2023-07-22T06:50:13;19.20;;;5.07;;
4806;SDS011;2417;52.482;13.432;2023-07-22T06:52:42;17.73;;;4.93;;
4806;SDS011;2417;52.482;13.432;2023-07-22T06:55:10;21.30;;;5.83;;
4806;SDS011;2417;52.482;13.432;2023-07-22T06:57:40;19.27;;;4.80;;
4806;SDS011;2417;52.482;13.432;2023-07-22T07:00:09;22.83;;;5.10;;
4806;SDS011;2417;52.482;13.432;2023-07-22T07:02:37;19.30;;;4.50;;
4806;SDS011;2417;52.482;13.432;2023-07-22T07:05:05;22.10;;;4.40;;
4806;SDS011;2417;52.482;13.432;2023-07-22T07:07:33;21.47;;;4.20;;
4806;SDS011;2417;52.482;13.432;2023-07-22T07:10:02;20.03;;;3.67;;
4806;SDS011;2417;52.482;13.432;2023-07-22T07:12:31;15.90;;;2.97;;
4806;SDS011;2417;52.482;13.432;2023-07-22T07:14:59;24.93;;;3.90;;
4806;SDS011;2417;52.482;13.432;2023-07-22T07:17:27;17.00;;;3.60;;
4806;SDS011;2417;52.482;13.432;2023-07-22T07:19:56;17.80;;;3.60;;
4806;SDS011;2417;52.482;13.432;2023-07-22T07:22:23;18.77;;;3.70;;
4806;SDS011;2417;52.482;13.432;2023-07-22T07:24:51;18.87;;;3.90;;
4806;SDS011;2417;52.482;13.432;2023-07-22T07:27:21;18.93;;;3.77;;
4806;SDS011;2417;52.482;13.432;2023-07-22T07:29:49;20.50;;;4.17;;
4806;SDS011;2417;52.482;13.432;2023-07-22T07:32:20;19.30;;;4.20;;
4806;SDS011;2417;52.482;13.432;2023-07-22T07:34:50;18.53;;;4.00;;
4806;SDS011;2417;52.482;13.432;2023-07-22T07:37:18;18.80;;;3.93;;
4806;SDS011;2417;52.482;13.432;2023-07-22T07:39:46;18.70;;;3.60;;
4806;SDS011;2417;52.482;13.432;2023-07-22T07:42:14;17.77;;;3.70;;
4806;SDS011;2417;52.482;13.432;2023-07-22T07:44:43;22.00;;;4.20;;
4806;SDS011;2417;52.482;13.432;2023-07-22T07:47:11;19.60;;;4.10;;
4806;SDS011;2417;52.482;13.432;2023-07-22T07:49:39;19.03;;;4.00;;
4806;SDS011;2417;52.482;13.432;2023-07-22T07:52:07;22.20;;;3.80;;
4806;SDS011;2417;52.482;13.432;2023-07-22T07:54:35;21.30;;;3.90;;
4806;SDS011;2417;52.482;13.432;2023-07-22T07:57:04;26.63;;;4.50;;
4806;SDS011;2417;52.482;13.432;2023-07-22T07:59:32;21.10;;;4.83;;
4806;SDS011;2417;52.482;13.432;2023-07-22T08:02:04;18.93;;;3.93;;
4806;SDS011;2417;52.482;13.432;2023-07-22T08:04:36;21.37;;;4.30;;
4806;SDS011;2417;52.482;13.432;2023-07-22T08:07:05;20.23;;;4.57;;
4806;SDS011;2417;52.482;13.432;2023-07-22T08:09:33;19.13;;;3.97;;
4806;SDS011;2417;52.482;13.432;2023-07-22T08:12:03;19.17;;;4.50;;
4806;SDS011;2417;52.482;13.432;2023-07-22T08:14:31;20.07;;;4.70;;
4806;SDS011;2417;52.482;13.432;2023-07-22T08:16:59;21.27;;;5.20;;
4806;SDS011;2417;52.482;13.432;2023-07-22T08:19:29;17.83;;;3.40;;
4806;SDS011;2417;52.482;13.432;2023-07-22T08:21:57;20.77;;;5.00;;
4806;SDS011;2417;52.482;13.432;2023-07-22T08:24:25;18.90;;;4.43;;
4806;SDS011;2417;52.482;13.432;2023-07-22T08:26:53;19.90;;;4.50;;
4806;SDS011;2417;52.482;13.432;2023-07-22T08:29:20;20.27;;;5.20;;
4806;SDS011;2417;52.482;13.432;2023-07-22T08:31:48;18.70;;;4.23;;
4806;SDS011;2417;52.482;13.432;2023-07-22T08:34:16;21.00;;;4.17;;
4806;SDS011;2417;52.482;13.432;2023-07-22T08:36:46;20.00;;;4.23;;
4806;SDS011;2417;52.482;13.432;2023-07-22T08:39:14;20.97;;;4.70;;
4806;SDS011;2417;52.482;13.432;2023-07-22T08:41:42;19.70;;;4.70;;
4806;SDS011;2417;52.482;13.432;2023-07-22T08:44:13;22.27;;;4.10;;
4806;SDS011;2417;52.482;13.432;2023-07-22T08:46:41;22.13;;;4.50;;
4806;SDS011;2417;52.482;13.432;2023-07-22T08:49:11;20.50;;;4.90;;
4806;SDS011;2417;52.482;13.432;2023-07-22T08:51:39;22.17;;;4.50;;
4806;SDS011;2417;52.482;13.432;2023-07-22T08:54:09;19.60;;;4.77;;
4806;SDS011;2417;52.482;13.432;2023-07-22T08:56:38;19.10;;;4.23;;
4806;SDS011;2417;52.482;13.432;2023-07-22T08:59:06;18.07;;;4.23;;
4806;SDS011;2417;52.482;13.432;2023-07-22T09:01:34;21.13;;;4.70;;
4806;SDS011;2417;52.482;13.432;2023-07-22T09:04:04;21.30;;;4.50;;
4806;SDS011;2417;52.482;13.432;2023-07-22T09:06:32;20.93;;;4.27;;
4806;SDS011;2417;52.482;13.432;2023-07-22T09:09:01;21.73;;;4.03;;
4806;SDS011;2417;52.482;13.432;2023-07-22T09:11:32;18.17;;;4.10;;
4806;SDS011;2417;52.482;13.432;2023-07-22T09:14:02;19.47;;;4.23;;
4806;SDS011;2417;52.482;13.432;2023-07-22T09:16:30;18.20;;;3.97;;
4806;SDS011;2417;52.482;13.432;2023-07-22T09:18:59;18.80;;;4.20;;
4806;SDS011;2417;52.482;13.432;2023-07-22T09:21:27;19.13;;;4.20;;
4806;SDS011;2417;52.482;13.432;2023-07-22T09:23:55;17.00;;;3.90;;
4806;SDS011;2417;52.482;13.432;2023-07-22T09:26:23;19.17;;;3.87;;
4806;SDS011;2417;52.482;13.432;2023-07-22T09:28:54;20.33;;;4.40;;
4806;SDS011;2417;52.482;13.432;2023-07-22T09:31:23;16.27;;;3.57;;
4806;SDS011;2417;52.482;13.432;2023-07-22T09:33:52;18.97;;;4.00;;
4806;SDS011;2417;52.482;13.432;2023-07-22T09:36:21;18.77;;;3.40;;
4806;SDS011;2417;52.482;13.432;2023-07-22T09:38:58;20.97;;;4.00;;
4806;SDS011;2417;52.482;13.432;2023-07-22T09:41:27;18.40;;;3.60;;
4806;SDS011;2417;52.482;13.432;2023-07-22T09:43:56;17.40;;;3.70;;
4806;SDS011;2417;52.482;13.432;2023-07-22T09:46:30;17.13;;;3.13;;
4806;SDS011;2417;52.482;13.432;2023-07-22T09:49:01;17.77;;;3.60;;
4806;SDS011;2417;52.482;13.432;2023-07-22T09:51:32;19.57;;;3.97;;
4806;SDS011;2417;52.482;13.432;2023-07-22T09:54:03;20.33;;;3.70;;
4806;SDS011;2417;52.482;13.432;2023-07-22T09:56:32;19.73;;;3.47;;
4806;SDS011;2417;52.482;13.432;2023-07-22T09:59:07;15.73;;;2.93;;
4806;SDS011;2417;52.482;13.432;2023-07-22T10:01:37;17.00;;;3.97;;
4806;SDS011;2417;52.482;13.432;2023-07-22T10:04:05;17.37;;;3.37;;
4806;SDS011;2417;52.482;13.432;2023-07-22T10:06:34;17.83;;;3.60;;
4806;SDS011;2417;52.482;13.432;2023-07-22T10:09:02;18.57;;;3.43;;
4806;SDS011;2417;52.482;13.432;2023-07-22T10:11:34;16.90;;;3.90;;
4806;SDS011;2417;52.482;13.432;2023-07-22T10:14:02;18.20;;;3.70;;
4806;SDS011;2417;52.482;13.432;2023-07-22T10:16:32;17.37;;;3.60;;
4806;SDS011;2417;52.482;13.432;2023-07-22T10:19:00;18.47;;;3.67;;
4806;SDS011;2417;52.482;13.432;2023-07-22T10:21:28;16.10;;;3.60;;
4806;SDS011;2417;52.482;13.432;2023-07-22T10:23:57;19.20;;;3.40;;
4806;SDS011;2417;52.482;13.432;2023-07-22T10:26:44;16.63;;;3.60;;
4806;SDS011;2417;52.482;13.432;2023-07-22T10:29:18;16.63;;;3.80;;
4806;SDS011;2417;52.482;13.432;2023-07-22T10:31:47;19.40;;;3.47;;
4806;SDS011;2417;52.482;13.432;2023-07-22T10:34:20;15.60;;;3.53;;
4806;SDS011;2417;52.482;13.432;2023-07-22T10:36:48;14.77;;;3.27;;
4806;SDS011;2417;52.482;13.432;2023-07-22T10:39:24;16.50;;;3.30;;
4806;SDS011;2417;52.482;13.432;2023-07-22T10:41:57;20.53;;;3.60;;
4806;SDS011;2417;52.482;13.432;2023-07-22T10:44:27;20.20;;;3.90;;
4806;SDS011;2417;52.482;13.432;2023-07-22T10:46:57;18.30;;;4.27;;
4806;SDS011;2417;52.482;13.432;2023-07-22T10:49:27;16.80;;;3.93;;
4806;SDS011;2417;52.482;13.432;2023-07-22T10:51:56;16.63;;;3.70;;
4806;SDS011;2417;52.482;13.432;2023-07-22T10:54:31;24.60;;;3.97;;
4806;SDS011;2417;52.482;13.432;2023-07-22T10:57:22;18.10;;;4.30;;
4806;SDS011;2417;52.482;13.432;2023-07-22T10:59:50;18.77;;;4.43;;
4806;SDS011;2417;52.482;13.432;2023-07-22T11:02:24;16.93;;;3.63;;
4806;SDS011;2417;52.482;13.432;2023-07-22T11:04:54;16.47;;;3.70;;
4806;SDS011;2417;52.482;13.432;2023-07-22T11:07:30;17.13;;;4.27;;
4806;SDS011;2417;52.482;13.432;2023-07-22T11:09:58;19.67;;;4.10;;
4806;SDS011;2417;52.482;13.432;2023-07-22T11:12:38;18.30;;;4.50;;
4806;SDS011;2417;52.482;13.432;2023-07-22T11:15:06;19.37;;;3.90;;
4806;SDS011;2417;52.482;13.432;2023-07-22T11:17:36;17.40;;;3.73;;
4806;SDS011;2417;52.482;13.432;2023-07-22T11:20:05;18.90;;;4.00;;
4806;SDS011;2417;52.482;13.432;2023-07-22T11:22:33;18.73;;;4.30;;
4806;SDS011;2417;52.482;13.432;2023-07-22T11:25:01;15.60;;;3.67;;
4806;SDS011;2417;52.482;13.432;2023-07-22T11:27:29;16.00;;;3.67;;
4806;SDS011;2417;52.482;13.432;2023-07-22T11:29:58;18.50;;;4.57;;
4806;SDS011;2417;52.482;13.432;2023-07-22T11:32:26;17.00;;;4.50;;
4806;SDS011;2417;52.482;13.432;2023-07-22T11:34:56;16.80;;;4.33;;
4806;SDS011;2417;52.482;13.432;2023-07-22T11:37:27;18.60;;;5.50;;
4806;SDS011;2417;52.482;13.432;2023-07-22T11:39:59;19.63;;;4.80;;
4806;SDS011;2417;52.482;13.432;2023-07-22T11:42:27;16.40;;;4.63;;
4806;SDS011;2417;52.482;13.432;2023-07-22T11:44:56;17.67;;;4.23;;
4806;SDS011;2417;52.482;13.432;2023-07-22T11:47:28;15.70;;;4.37;;
4806;SDS011;2417;52.482;13.432;2023-07-22T11:49:57;15.13;;;3.50;;
4806;SDS011;2417;52.482;13.432;2023-07-22T11:52:26;15.70;;;4.63;;
4806;SDS011;2417;52.482;13.432;2023-07-22T11:54:54;16.40;;;4.60;;
4806;SDS011;2417;52.482;13.432;2023-07-22T11:57:27;16.67;;;4.20;;
4806;SDS011;2417;52.482;13.432;2023-07-22T11:59:55;19.50;;;4.00;;
4806;SDS011;2417;52.482;13.432;2023-07-22T12:02:24;16.30;;;4.50;;
4806;SDS011;2417;52.482;13.432;2023-07-22T12:04:52;14.23;;;4.10;;
4806;SDS011;2417;52.482;13.432;2023-07-22T12:07:25;16.20;;;5.00;;
4806;SDS011;2417;52.482;13.432;2023-07-22T12:09:54;13.90;;;3.53;;
4806;SDS011;2417;52.482;13.432;2023-07-22T12:12:31;14.93;;;3.97;;
4806;SDS011;2417;52.482;13.432;2023-07-22T12:15:02;17.93;;;4.37;;
4806;SDS011;2417;52.482;13.432;2023-07-22T12:17:43;14.90;;;4.50;;
4806;SDS011;2417;52.482;13.432;2023-07-22T12:20:11;19.33;;;4.93;;
4806;SDS011;2417;52.482;13.432;2023-07-22T12:22:40;17.83;;;4.63;;
4806;SDS011;2417;52.482;13.432;2023-07-22T12:25:08;17.70;;;3.90;;
4806;SDS011;2417;52.482;13.432;2023-07-22T12:27:37;19.23;;;4.50;;
4806;SDS011;2417;52.482;13.432;2023-07-22T12:30:05;15.50;;;4.20;;
4806;SDS011;2417;52.482;13.432;2023-07-22T12:32:34;15.23;;;4.70;;
4806;SDS011;2417;52.482;13.432;2023-07-22T12:35:02;16.57;;;4.73;;
4806;SDS011;2417;52.482;13.432;2023-07-22T12:37:30;16.67;;;4.73;;
4806;SDS011;2417;52.482;13.432;2023-07-22T12:40:00;14.80;;;4.30;;
4806;SDS011;2417;52.482;13.432;2023-07-22T12:42:27;15.50;;;4.87;;
4806;SDS011;2417;52.482;13.432;2023-07-22T12:44:56;14.00;;;4.37;;
4806;SDS011;2417;52.482;13.432;2023-07-22T12:47:23;13.13;;;4.00;;
4806;SDS011;2417;52.482;13.432;2023-07-22T12:49:51;14.67;;;4.10;;
4806;SDS011;2417;52.482;13.432;2023-07-22T12:52:19;14.43;;;4.33;;
4806;SDS011;2417;52.482;13.432;2023-07-22T12:54:47;18.20;;;6.40;;
4806;SDS011;2417;52.482;13.432;2023-07-22T12:57:16;14.43;;;5.00;;
4806;SDS011;2417;52.482;13.432;2023-07-22T12:59:45;16.77;;;5.00;;
4806;SDS011;2417;52.482;13.432;2023-07-22T13:02:15;15.13;;;4.67;;
4806;SDS011;2417;52.482;13.432;2023-07-22T13:04:43;15.97;;;5.03;;
4806;SDS011;2417;52.482;13.432;2023-07-22T13:07:12;14.60;;;4.20;;
4806;SDS011;2417;52.482;13.432;2023-07-22T13:09:40;14.47;;;4.40;;
4806;SDS011;2417;52.482;13.432;2023-07-22T13:12:09;15.67;;;4.47;;
4806;SDS011;2417;52.482;13.432;2023-07-22T13:14:39;14.43;;;4.70;;
4806;SDS011;2417;52.482;13.432;2023-07-22T13:17:07;15.40;;;4.50;;
4806;SDS011;2417;52.482;13.432;2023-07-22T13:19:35;17.53;;;4.37;;
4806;SDS011;2417;52.482;13.432;2023-07-22T13:22:03;16.30;;;4.60;;
4806;SDS011;2417;52.482;13.432;2023-07-22T13:24:31;16.50;;;4.90;;
4806;SDS011;2417;52.482;13.432;2023-07-22T13:26:59;16.30;;;5.33;;
4806;SDS011;2417;52.482;13.432;2023-07-22T13:29:26;14.80;;;5.07;;
4806;SDS011;2417;52.482;13.432;2023-07-22T13:31:56;18.07;;;5.17;;
4806;SDS011;2417;52.482;13.432;2023-07-22T13:34:24;15.30;;;4.03;;
4806;SDS011;2417;52.482;13.432;2023-07-22T13:36:52;18.57;;;4.90;;
4806;SDS011;2417;52.482;13.432;2023-07-22T13:39:19;16.10;;;4.20;;
4806;SDS011;2417;52.482;13.432;2023-07-22T13:41:47;16.10;;;4.57;;
4806;SDS011;2417;52.482;13.432;2023-07-22T13:44:16;15.60;;;4.13;;
4806;SDS011;2417;52.482;13.432;2023-07-22T13:46:45;14.17;;;4.27;;
4806;SDS011;2417;52.482;13.432;2023-07-22T13:49:14;13.70;;;4.00;;
4806;SDS011;2417;52.482;13.432;2023-07-22T13:51:42;16.10;;;4.07;;
4806;SDS011;2417;52.482;13.432;2023-07-22T13:54:10;14.90;;;4.53;;
4806;SDS011;2417;52.482;13.432;2023-07-22T13:56:38;14.03;;;4.63;;
4806;SDS011;2417;52.482;13.432;2023-07-22T13:59:05;14.77;;;4.07;;
4806;SDS011;2417;52.482;13.432;2023-07-22T14:01:34;13.47;;;3.90;;
4806;SDS011;2417;52.482;13.432;2023-07-22T14:04:02;14.53;;;4.50;;
4806;SDS011;2417;52.482;13.432;2023-07-22T14:06:31;14.67;;;4.30;;
4806;SDS011;2417;52.482;13.432;2023-07-22T14:09:00;17.13;;;5.13;;
4806;SDS011;2417;52.482;13.432;2023-07-22T14:11:28;25.53;;;4.57;;
4806;SDS011;2417;52.482;13.432;2023-07-22T14:13:56;16.30;;;5.20;;
4806;SDS011;2417;52.482;13.432;2023-07-22T14:16:24;14.23;;;4.40;;
4806;SDS011;2417;52.482;13.432;2023-07-22T14:18:53;15.30;;;5.17;;
4806;SDS011;2417;52.482;13.432;2023-07-22T14:21:21;15.17;;;4.63;;
4806;SDS011;2417;52.482;13.432;2023-07-22T14:23:51;15.63;;;5.23;;
4806;SDS011;2417;52.482;13.432;2023-07-22T14:26:19;17.17;;;5.00;;
4806;SDS011;2417;52.482;13.432;2023-07-22T14:28:47;20.87;;;7.67;;
4806;SDS011;2417;52.482;13.432;2023-07-22T14:31:14;19.83;;;6.23;;
4806;SDS011;2417;52.482;13.432;2023-07-22T14:33:42;21.33;;;6.13;;
4806;SDS011;2417;52.482;13.432;2023-07-22T14:36:10;17.50;;;5.40;;
4806;SDS011;2417;52.482;13.432;2023-07-22T14:38:38;16.90;;;4.80;;
4806;SDS011;2417;52.482;13.432;2023-07-22T14:41:08;14.80;;;4.37;;
4806;SDS011;2417;52.482;13.432;2023-07-22T14:43:38;20.20;;;4.70;;
4806;SDS011;2417;52.482;13.432;2023-07-22T14:46:05;16.67;;;4.80;;
4806;SDS011;2417;52.482;13.432;2023-07-22T14:48:34;16.13;;;5.20;;
4806;SDS011;2417;52.482;13.432;2023-07-22T14:51:02;15.30;;;4.60;;
4806;SDS011;2417;52.482;13.432;2023-07-22T14:53:30;16.07;;;5.00;;
4806;SDS011;2417;52.482;13.432;2023-07-22T14:55:58;17.73;;;4.90;;
4806;SDS011;2417;52.482;13.432;2023-07-22T14:58:27;16.20;;;4.90;;